sensor_id;sensor_type;location;lat;lon;timestamp;temperature;humidity
9125;DHT22;4597;48.730;9.114;2022-08-30T00:01:10;18.60;99.90
9125;DHT22;4597;48.730;9.114;2022-08-30T00:03:46;18.50;99.90
9125;DHT22;4597;48.730;9.114;2022-08-30T00:06:14;18.50;99.90
9125;DHT22;4597;48.730;9.114;2022-08-30T00:08:41;18.40;99.90
9125;DHT22;4597;48.730;9.114;2022-08-30T00:11:09;18.40;99.90
9125;DHT22;4597;48.730;9.114;2022-08-30T00:13:41;18.40;99.90
9125;DHT22;4597;48.730;9.114;2022-08-30T00:16:07;18.40;99.90
9125;DHT22;4597;48.730;9.114;2022-08-30T00:18:33;18.40;99.90
9125;DHT22;4597;48.730;9.114;2022-08-30T00:21:00;18.30;99.90
9125;DHT22;4597;48.730;9.114;2022-08-30T00:23:26;18.30;99.90
9125;DHT22;4597;48.730;9.114;2022-08-30T00:25:51;18.30;99.90
9125;DHT22;4597;48.730;9.114;2022-08-30T00:28:17;18.30;99.90
9125;DHT22;4597;48.730;9.114;2022-08-30T00:30:43;18.20;99.90
9125;DHT22;4597;48.730;9.114;2022-08-30T00:33:10;18.20;99.90
9125;DHT22;4597;48.730;9.114;2022-08-30T00:35:36;18.20;99.90
9125;DHT22;4597;48.730;9.114;2022-08-30T00:38:04;18.20;99.90
9125;DHT22;4597;48.730;9.114;2022-08-30T00:40:30;18.10;99.90
9125;DHT22;4597;48.730;9.114;2022-08-30T00:42:58;18.00;99.90
9125;DHT22;4597;48.730;9.114;2022-08-30T00:45:28;18.00;99.90
9125;DHT22;4597;48.730;9.114;2022-08-30T00:47:55;18.00;99.90
9125;DHT22;4597;48.730;9.114;2022-08-30T00:50:23;17.90;99.90
9125;DHT22;4597;48.730;9.114;2022-08-30T00:52:53;17.90;99.90
9125;DHT22;4597;48.730;9.114;2022-08-30T00:55:21;17.90;99.90
9125;DHT22;4597;48.730;9.114;2022-08-30T00:57:51;17.90;99.90
9125;DHT22;4597;48.730;9.114;2022-08-30T01:00:17;17.90;99.90
9125;DHT22;4597;48.730;9.114;2022-08-30T01:02:43;17.90;99.90
9125;DHT22;4597;48.730;9.114;2022-08-30T01:05:10;17.90;99.90
9125;DHT22;4597;48.730;9.114;2022-08-30T01:07:37;17.90;99.90
9125;DHT22;4597;48.730;9.114;2022-08-30T01:10:04;17.90;99.90
9125;DHT22;4597;48.730;9.114;2022-08-30T01:12:31;17.90;99.90
9125;DHT22;4597;48.730;9.114;2022-08-30T01:14:57;17.80;99.90
9125;DHT22;4597;48.730;9.114;2022-08-30T01:17:24;17.80;99.90
9125;DHT22;4597;48.730;9.114;2022-08-30T01:20:00;17.80;99.90
9125;DHT22;4597;48.730;9.114;2022-08-30T01:24:58;17.70;99.90
9125;DHT22;4597;48.730;9.114;2022-08-30T01:27:25;17.70;99.90
9125;DHT22;4597;48.730;9.114;2022-08-30T01:29:52;17.70;99.90
9125;DHT22;4597;48.730;9.114;2022-08-30T01:32:23;17.70;99.90
9125;DHT22;4597;48.730;9.114;2022-08-30T01:34:49;17.70;99.90
9125;DHT22;4597;48.730;9.114;2022-08-30T01:37:19;17.60;99.90
9125;DHT22;4597;48.730;9.114;2022-08-30T01:39:46;17.60;99.90
9125;DHT22;4597;48.730;9.114;2022-08-30T01:42:15;17.60;99.90
9125;DHT22;4597;48.730;9.114;2022-08-30T01:44:44;17.60;99.90
9125;DHT22;4597;48.730;9.114;2022-08-30T01:47:11;17.60;99.90
9125;DHT22;4597;48.730;9.114;2022-08-30T01:49:37;17.60;99.90
9125;DHT22;4597;48.730;9.114;2022-08-30T01:52:04;17.50;99.90
9125;DHT22;4597;48.730;9.114;2022-08-30T01:54:32;17.60;99.90
9125;DHT22;4597;48.730;9.114;2022-08-30T01:56:58;17.60;99.90
9125;DHT22;4597;48.730;9.114;2022-08-30T01:59:24;17.50;99.90
9125;DHT22;4597;48.730;9.114;2022-08-30T02:01:49;17.50;99.90
9125;DHT22;4597;48.730;9.114;2022-08-30T02:04:15;17.50;99.90
9125;DHT22;4597;48.730;9.114;2022-08-30T02:06:41;17.50;99.90
9125;DHT22;4597;48.730;9.114;2022-08-30T02:09:09;17.50;99.90
9125;DHT22;4597;48.730;9.114;2022-08-30T02:11:34;17.40;99.90
9125;DHT22;4597;48.730;9.114;2022-08-30T02:14:00;17.40;99.90
9125;DHT22;4597;48.730;9.114;2022-08-30T02:16:26;17.40;99.90
9125;DHT22;4597;48.730;9.114;2022-08-30T02:18:52;17.40;99.90
9125;DHT22;4597;48.730;9.114;2022-08-30T02:21:18;17.30;99.90
9125;DHT22;4597;48.730;9.114;2022-08-30T02:23:44;17.20;99.90
9125;DHT22;4597;48.730;9.114;2022-08-30T02:26:11;17.30;99.90
9125;DHT22;4597;48.730;9.114;2022-08-30T02:28:37;17.30;99.90
9125;DHT22;4597;48.730;9.114;2022-08-30T02:31:02;17.20;99.90
9125;DHT22;4597;48.730;9.114;2022-08-30T02:33:28;17.20;99.90
9125;DHT22;4597;48.730;9.114;2022-08-30T02:35:53;17.20;99.90
9125;DHT22;4597;48.730;9.114;2022-08-30T02:38:20;17.20;99.90
9125;DHT22;4597;48.730;9.114;2022-08-30T02:40:48;17.20;99.90
9125;DHT22;4597;48.730;9.114;2022-08-30T02:43:14;17.20;99.90
9125;DHT22;4597;48.730;9.114;2022-08-30T02:45:39;17.30;99.90
9125;DHT22;4597;48.730;9.114;2022-08-30T02:48:05;17.20;99.90
9125;DHT22;4597;48.730;9.114;2022-08-30T02:50:30;17.20;99.90
9125;DHT22;4597;48.730;9.114;2022-08-30T02:52:56;17.10;99.90
9125;DHT22;4597;48.730;9.114;2022-08-30T02:55:22;17.10;99.90
9125;DHT22;4597;48.730;9.114;2022-08-30T02:57:48;17.10;99.90
9125;DHT22;4597;48.730;9.114;2022-08-30T03:00:17;17.10;99.90
9125;DHT22;4597;48.730;9.114;2022-08-30T03:02:42;17.10;99.90
9125;DHT22;4597;48.730;9.114;2022-08-30T03:05:09;17.00;99.90
9125;DHT22;4597;48.730;9.114;2022-08-30T03:07:37;17.00;99.90
9125;DHT22;4597;48.730;9.114;2022-08-30T03:10:03;17.00;99.90
9125;DHT22;4597;48.730;9.114;2022-08-30T03:12:29;17.00;99.90
9125;DHT22;4597;48.730;9.114;2022-08-30T03:14:57;17.00;99.90
9125;DHT22;4597;48.730;9.114;2022-08-30T03:17:22;17.00;99.90
9125;DHT22;4597;48.730;9.114;2022-08-30T03:19:48;16.90;99.90
9125;DHT22;4597;48.730;9.114;2022-08-30T03:22:13;16.90;99.90
9125;DHT22;4597;48.730;9.114;2022-08-30T03:24:39;16.90;99.90
9125;DHT22;4597;48.730;9.114;2022-08-30T03:27:05;16.80;99.90
9125;DHT22;4597;48.730;9.114;2022-08-30T03:29:31;16.80;99.90
9125;DHT22;4597;48.730;9.114;2022-08-30T03:31:57;16.80;99.90
9125;DHT22;4597;48.730;9.114;2022-08-30T03:34:23;16.80;99.90
9125;DHT22;4597;48.730;9.114;2022-08-30T03:36:51;16.80;99.90
9125;DHT22;4597;48.730;9.114;2022-08-30T03:39:17;16.80;99.90
9125;DHT22;4597;48.730;9.114;2022-08-30T03:41:43;16.80;99.90
9125;DHT22;4597;48.730;9.114;2022-08-30T03:44:10;16.80;99.90
9125;DHT22;4597;48.730;9.114;2022-08-30T03:46:35;16.70;99.90
9125;DHT22;4597;48.730;9.114;2022-08-30T03:49:01;16.70;99.90
9125;DHT22;4597;48.730;9.114;2022-08-30T03:51:26;16.60;99.90
9125;DHT22;4597;48.730;9.114;2022-08-30T03:53:52;16.60;99.90
9125;DHT22;4597;48.730;9.114;2022-08-30T03:56:20;16.60;99.90
9125;DHT22;4597;48.730;9.114;2022-08-30T03:58:46;16.50;99.90
9125;DHT22;4597;48.730;9.114;2022-08-30T04:01:11;16.50;99.90
9125;DHT22;4597;48.730;9.114;2022-08-30T04:03:37;16.50;99.90
9125;DHT22;4597;48.730;9.114;2022-08-30T04:06:03;16.50;99.90
9125;DHT22;4597;48.730;9.114;2022-08-30T04:08:29;16.50;99.90
9125;DHT22;4597;48.730;9.114;2022-08-30T04:10:54;16.50;99.90
9125;DHT22;4597;48.730;9.114;2022-08-30T04:13:22;16.40;99.90
9125;DHT22;4597;48.730;9.114;2022-08-30T04:15:48;16.40;99.90
9125;DHT22;4597;48.730;9.114;2022-08-30T04:18:14;16.40;99.90
9125;DHT22;4597;48.730;9.114;2022-08-30T04:20:40;16.30;99.90
9125;DHT22;4597;48.730;9.114;2022-08-30T04:23:05;16.30;99.90
9125;DHT22;4597;48.730;9.114;2022-08-30T04:25:37;16.30;99.90
9125;DHT22;4597;48.730;9.114;2022-08-30T04:28:04;16.30;99.90
9125;DHT22;4597;48.730;9.114;2022-08-30T04:30:30;16.20;99.90
9125;DHT22;4597;48.730;9.114;2022-08-30T04:32:56;16.20;99.90
9125;DHT22;4597;48.730;9.114;2022-08-30T04:35:22;16.20;99.90
9125;DHT22;4597;48.730;9.114;2022-08-30T04:37:48;16.20;99.90
9125;DHT22;4597;48.730;9.114;2022-08-30T04:40:14;16.20;99.90
9125;DHT22;4597;48.730;9.114;2022-08-30T04:42:40;16.10;99.90
9125;DHT22;4597;48.730;9.114;2022-08-30T04:45:10;16.10;99.90
9125;DHT22;4597;48.730;9.114;2022-08-30T04:47:36;16.10;99.90
9125;DHT22;4597;48.730;9.114;2022-08-30T04:50:04;16.10;99.90
9125;DHT22;4597;48.730;9.114;2022-08-30T04:52:30;16.10;99.90
9125;DHT22;4597;48.730;9.114;2022-08-30T04:54:56;16.10;99.90
9125;DHT22;4597;48.730;9.114;2022-08-30T04:57:23;16.10;99.90
9125;DHT22;4597;48.730;9.114;2022-08-30T04:59:49;16.10;99.90
9125;DHT22;4597;48.730;9.114;2022-08-30T05:02:14;16.10;99.90
9125;DHT22;4597;48.730;9.114;2022-08-30T05:04:40;16.10;99.90
9125;DHT22;4597;48.730;9.114;2022-08-30T05:07:29;16.10;99.90
9125;DHT22;4597;48.730;9.114;2022-08-30T05:09:55;16.10;99.90
9125;DHT22;4597;48.730;9.114;2022-08-30T05:12:21;16.10;99.90
9125;DHT22;4597;48.730;9.114;2022-08-30T05:14:46;16.10;99.90
9125;DHT22;4597;48.730;9.114;2022-08-30T05:17:12;16.20;99.90
9125;DHT22;4597;48.730;9.114;2022-08-30T05:19:38;16.10;99.90
9125;DHT22;4597;48.730;9.114;2022-08-30T05:22:03;16.10;99.90
9125;DHT22;4597;48.730;9.114;2022-08-30T05:24:29;16.10;99.90
9125;DHT22;4597;48.730;9.114;2022-08-30T05:26:56;16.20;99.90
9125;DHT22;4597;48.730;9.114;2022-08-30T05:29:22;16.20;99.90
9125;DHT22;4597;48.730;9.114;2022-08-30T05:31:47;16.20;99.90
9125;DHT22;4597;48.730;9.114;2022-08-30T05:34:13;16.20;99.90
9125;DHT22;4597;48.730;9.114;2022-08-30T05:36:38;16.30;99.90
9125;DHT22;4597;48.730;9.114;2022-08-30T05:39:08;16.30;99.90
9125;DHT22;4597;48.730;9.114;2022-08-30T05:41:35;16.30;99.90
9125;DHT22;4597;48.730;9.114;2022-08-30T05:44:01;16.30;99.90
9125;DHT22;4597;48.730;9.114;2022-08-30T05:46:29;16.40;99.90
9125;DHT22;4597;48.730;9.114;2022-08-30T05:48:58;16.40;99.90
9125;DHT22;4597;48.730;9.114;2022-08-30T05:51:27;16.40;99.90
9125;DHT22;4597;48.730;9.114;2022-08-30T05:53:57;16.40;99.90
9125;DHT22;4597;48.730;9.114;2022-08-30T05:56:26;16.50;99.90
9125;DHT22;4597;48.730;9.114;2022-08-30T05:58:53;16.50;99.90
9125;DHT22;4597;48.730;9.114;2022-08-30T06:01:39;16.50;99.90
9125;DHT22;4597;48.730;9.114;2022-08-30T06:04:07;16.50;99.90
9125;DHT22;4597;48.730;9.114;2022-08-30T06:06:35;16.50;99.90
9125;DHT22;4597;48.730;9.114;2022-08-30T06:09:02;16.50;99.90
9125;DHT22;4597;48.730;9.114;2022-08-30T06:11:28;16.50;99.90
9125;DHT22;4597;48.730;9.114;2022-08-30T06:13:53;16.60;99.90
9125;DHT22;4597;48.730;9.114;2022-08-30T06:16:21;16.60;99.90
9125;DHT22;4597;48.730;9.114;2022-08-30T06:18:47;16.70;99.90
9125;DHT22;4597;48.730;9.114;2022-08-30T06:21:24;16.70;99.90
9125;DHT22;4597;48.730;9.114;2022-08-30T06:23:51;16.70;99.90
9125;DHT22;4597;48.730;9.114;2022-08-30T06:26:17;16.70;99.90
9125;DHT22;4597;48.730;9.114;2022-08-30T06:28:43;16.70;99.90
9125;DHT22;4597;48.730;9.114;2022-08-30T06:31:09;16.80;99.90
9125;DHT22;4597;48.730;9.114;2022-08-30T06:33:36;16.80;99.90
9125;DHT22;4597;48.730;9.114;2022-08-30T06:36:03;16.90;99.90
9125;DHT22;4597;48.730;9.114;2022-08-30T06:38:29;17.00;99.90
9125;DHT22;4597;48.730;9.114;2022-08-30T06:40:54;17.00;99.90
9125;DHT22;4597;48.730;9.114;2022-08-30T06:43:20;17.10;99.90
9125;DHT22;4597;48.730;9.114;2022-08-30T06:45:45;17.20;99.90
9125;DHT22;4597;48.730;9.114;2022-08-30T06:48:11;17.30;99.90
9125;DHT22;4597;48.730;9.114;2022-08-30T06:50:37;17.40;99.90
9125;DHT22;4597;48.730;9.114;2022-08-30T06:53:02;17.60;99.90
9125;DHT22;4597;48.730;9.114;2022-08-30T06:55:30;17.70;99.90
9125;DHT22;4597;48.730;9.114;2022-08-30T06:58:00;17.80;99.90
9125;DHT22;4597;48.730;9.114;2022-08-30T07:00:25;18.00;99.90
9125;DHT22;4597;48.730;9.114;2022-08-30T07:02:51;18.10;99.90
9125;DHT22;4597;48.730;9.114;2022-08-30T07:05:17;18.10;99.90
9125;DHT22;4597;48.730;9.114;2022-08-30T07:07:46;18.20;99.90
9125;DHT22;4597;48.730;9.114;2022-08-30T07:10:12;18.30;99.90
9125;DHT22;4597;48.730;9.114;2022-08-30T07:12:39;18.40;99.90
9125;DHT22;4597;48.730;9.114;2022-08-30T07:15:04;18.40;99.90
9125;DHT22;4597;48.730;9.114;2022-08-30T07:17:30;18.60;99.90
9125;DHT22;4597;48.730;9.114;2022-08-30T07:20:14;18.70;99.90
9125;DHT22;4597;48.730;9.114;2022-08-30T07:22:40;18.80;99.90
9125;DHT22;4597;48.730;9.114;2022-08-30T07:25:06;18.90;99.90
9125;DHT22;4597;48.730;9.114;2022-08-30T07:27:32;19.00;99.90
9125;DHT22;4597;48.730;9.114;2022-08-30T07:29:58;19.00;99.90
9125;DHT22;4597;48.730;9.114;2022-08-30T07:32:25;19.10;99.90
9125;DHT22;4597;48.730;9.114;2022-08-30T07:34:50;19.10;99.90
9125;DHT22;4597;48.730;9.114;2022-08-30T07:37:16;19.20;99.90
9125;DHT22;4597;48.730;9.114;2022-08-30T07:39:41;19.20;99.90
9125;DHT22;4597;48.730;9.114;2022-08-30T07:42:07;19.30;99.90
9125;DHT22;4597;48.730;9.114;2022-08-30T07:44:32;19.30;99.90
9125;DHT22;4597;48.730;9.114;2022-08-30T07:46:58;19.30;99.90
9125;DHT22;4597;48.730;9.114;2022-08-30T07:49:23;19.30;99.90
9125;DHT22;4597;48.730;9.114;2022-08-30T07:51:49;19.40;99.90
9125;DHT22;4597;48.730;9.114;2022-08-30T07:54:16;19.50;99.90
9125;DHT22;4597;48.730;9.114;2022-08-30T07:56:41;19.50;99.90
9125;DHT22;4597;48.730;9.114;2022-08-30T07:59:07;19.50;99.90
9125;DHT22;4597;48.730;9.114;2022-08-30T08:01:32;19.50;99.90
9125;DHT22;4597;48.730;9.114;2022-08-30T08:03:58;19.60;99.90
9125;DHT22;4597;48.730;9.114;2022-08-30T08:06:24;19.60;99.90
9125;DHT22;4597;48.730;9.114;2022-08-30T08:08:50;19.70;99.90
9125;DHT22;4597;48.730;9.114;2022-08-30T08:11:24;19.80;99.90
9125;DHT22;4597;48.730;9.114;2022-08-30T08:13:51;19.80;99.90
9125;DHT22;4597;48.730;9.114;2022-08-30T08:16:17;19.90;99.90
9125;DHT22;4597;48.730;9.114;2022-08-30T08:18:43;20.00;99.90
9125;DHT22;4597;48.730;9.114;2022-08-30T08:21:08;20.10;99.90
9125;DHT22;4597;48.730;9.114;2022-08-30T08:23:34;20.20;99.90
9125;DHT22;4597;48.730;9.114;2022-08-30T08:25:59;20.40;99.90
9125;DHT22;4597;48.730;9.114;2022-08-30T08:28:26;20.50;99.90
9125;DHT22;4597;48.730;9.114;2022-08-30T08:30:51;20.70;99.90
9125;DHT22;4597;48.730;9.114;2022-08-30T08:33:17;20.80;99.90
9125;DHT22;4597;48.730;9.114;2022-08-30T08:35:43;20.90;99.90
9125;DHT22;4597;48.730;9.114;2022-08-30T08:38:09;21.00;99.90
9125;DHT22;4597;48.730;9.114;2022-08-30T08:40:44;21.10;99.90
9125;DHT22;4597;48.730;9.114;2022-08-30T08:43:16;21.10;99.90
9125;DHT22;4597;48.730;9.114;2022-08-30T08:46:13;21.10;99.90
9125;DHT22;4597;48.730;9.114;2022-08-30T08:48:49;21.10;99.90
9125;DHT22;4597;48.730;9.114;2022-08-30T08:51:18;21.20;99.90
9125;DHT22;4597;48.730;9.114;2022-08-30T08:54:13;21.20;99.90
9125;DHT22;4597;48.730;9.114;2022-08-30T08:56:39;21.20;99.90
9125;DHT22;4597;48.730;9.114;2022-08-30T08:59:09;21.30;99.90
9125;DHT22;4597;48.730;9.114;2022-08-30T09:01:39;21.40;99.90
9125;DHT22;4597;48.730;9.114;2022-08-30T09:04:13;21.50;99.90
9125;DHT22;4597;48.730;9.114;2022-08-30T09:07:02;21.60;99.90
9125;DHT22;4597;48.730;9.114;2022-08-30T09:09:34;21.70;99.90
9125;DHT22;4597;48.730;9.114;2022-08-30T09:12:00;21.70;99.90
9125;DHT22;4597;48.730;9.114;2022-08-30T09:14:29;21.80;99.90
9125;DHT22;4597;48.730;9.114;2022-08-30T09:16:58;21.90;99.90
9125;DHT22;4597;48.730;9.114;2022-08-30T09:22:23;22.20;99.90
9125;DHT22;4597;48.730;9.114;2022-08-30T09:25:06;22.30;99.90
9125;DHT22;4597;48.730;9.114;2022-08-30T09:27:37;22.40;99.90
9125;DHT22;4597;48.730;9.114;2022-08-30T09:30:09;22.50;99.90
9125;DHT22;4597;48.730;9.114;2022-08-30T09:32:53;22.50;99.90
9125;DHT22;4597;48.730;9.114;2022-08-30T09:35:23;22.60;99.90
9125;DHT22;4597;48.730;9.114;2022-08-30T09:38:07;22.70;99.90
9125;DHT22;4597;48.730;9.114;2022-08-30T09:40:35;22.80;99.90
9125;DHT22;4597;48.730;9.114;2022-08-30T09:43:06;22.80;99.90
9125;DHT22;4597;48.730;9.114;2022-08-30T09:45:41;22.90;99.90
9125;DHT22;4597;48.730;9.114;2022-08-30T09:53:51;23.00;99.90
9125;DHT22;4597;48.730;9.114;2022-08-30T10:07:24;23.40;99.90
9125;DHT22;4597;48.730;9.114;2022-08-30T10:15:28;23.70;99.90
9125;DHT22;4597;48.730;9.114;2022-08-30T10:18:12;23.80;99.90
9125;DHT22;4597;48.730;9.114;2022-08-30T10:23:39;23.90;99.90
9125;DHT22;4597;48.730;9.114;2022-08-30T10:29:04;24.10;99.90
9125;DHT22;4597;48.730;9.114;2022-08-30T10:31:52;24.20;99.90
9125;DHT22;4597;48.730;9.114;2022-08-30T10:34:36;24.30;99.90
9125;DHT22;4597;48.730;9.114;2022-08-30T10:37:10;24.40;99.90
9125;DHT22;4597;48.730;9.114;2022-08-30T10:39:45;24.40;99.90
9125;DHT22;4597;48.730;9.114;2022-08-30T10:42:22;24.50;99.90
9125;DHT22;4597;48.730;9.114;2022-08-30T10:44:52;24.70;99.90
9125;DHT22;4597;48.730;9.114;2022-08-30T10:50:11;24.90;99.90
9125;DHT22;4597;48.730;9.114;2022-08-30T10:53:27;25.00;99.90
9125;DHT22;4597;48.730;9.114;2022-08-30T10:55:33;25.00;99.90
9125;DHT22;4597;48.730;9.114;2022-08-30T10:58:02;25.10;99.90
9125;DHT22;4597;48.730;9.114;2022-08-30T11:03:37;25.30;99.90
9125;DHT22;4597;48.730;9.114;2022-08-30T11:06:31;25.40;99.90
9125;DHT22;4597;48.730;9.114;2022-08-30T11:09:26;25.50;99.90
9125;DHT22;4597;48.730;9.114;2022-08-30T11:14:45;25.70;97.60
9125;DHT22;4597;48.730;9.114;2022-08-30T11:17:38;25.70;97.20
9125;DHT22;4597;48.730;9.114;2022-08-30T11:20:04;25.90;97.00
9125;DHT22;4597;48.730;9.114;2022-08-30T11:23:13;26.00;95.40
9125;DHT22;4597;48.730;9.114;2022-08-30T11:26:05;26.10;93.70
9125;DHT22;4597;48.730;9.114;2022-08-30T11:31:10;26.30;93.40
9125;DHT22;4597;48.730;9.114;2022-08-30T11:33:49;26.30;91.60
9125;DHT22;4597;48.730;9.114;2022-08-30T11:39:12;26.50;
9125;DHT22;4597;48.730;9.114;2022-08-30T11:41:46;26.60;87.40
9125;DHT22;4597;48.730;9.114;2022-08-30T11:44:32;26.70;88.00
9125;DHT22;4597;48.730;9.114;2022-08-30T11:47:00;26.90;83.30
9125;DHT22;4597;48.730;9.114;2022-08-30T11:49:35;27.00;81.70
9125;DHT22;4597;48.730;9.114;2022-08-30T11:55:00;27.10;84.70
9125;DHT22;4597;48.730;9.114;2022-08-30T12:00:36;27.10;80.80
9125;DHT22;4597;48.730;9.114;2022-08-30T12:03:27;27.10;80.70
9125;DHT22;4597;48.730;9.114;2022-08-30T12:05:58;27.10;80.60
9125;DHT22;4597;48.730;9.114;2022-08-30T12:16:09;27.20;78.50
9125;DHT22;4597;48.730;9.114;2022-08-30T12:18:42;27.20;80.00
9125;DHT22;4597;48.730;9.114;2022-08-30T12:28:49;27.50;74.70
9125;DHT22;4597;48.730;9.114;2022-08-30T12:31:21;27.60;73.60
9125;DHT22;4597;48.730;9.114;2022-08-30T12:33:52;27.70;73.80
9125;DHT22;4597;48.730;9.114;2022-08-30T12:36:34;27.70;72.60
9125;DHT22;4597;48.730;9.114;2022-08-30T12:39:13;27.70;70.90
9125;DHT22;4597;48.730;9.114;2022-08-30T12:41:40;27.70;71.50
9125;DHT22;4597;48.730;9.114;2022-08-30T12:44:11;27.80;72.70
9125;DHT22;4597;48.730;9.114;2022-08-30T12:46:40;27.90;72.00
9125;DHT22;4597;48.730;9.114;2022-08-30T12:49:06;28.00;67.80
9125;DHT22;4597;48.730;9.114;2022-08-30T12:51:38;28.10;69.30
9125;DHT22;4597;48.730;9.114;2022-08-30T12:54:08;28.30;68.30
9125;DHT22;4597;48.730;9.114;2022-08-30T12:56:58;28.40;64.90
9125;DHT22;4597;48.730;9.114;2022-08-30T13:02:23;28.60;64.60
9125;DHT22;4597;48.730;9.114;2022-08-30T13:04:50;28.70;63.70
9125;DHT22;4597;48.730;9.114;2022-08-30T13:07:29;28.80;62.20
9125;DHT22;4597;48.730;9.114;2022-08-30T13:10:07;28.90;62.40
9125;DHT22;4597;48.730;9.114;2022-08-30T13:12:37;28.80;61.10
9125;DHT22;4597;48.730;9.114;2022-08-30T13:15:19;29.00;64.50
9125;DHT22;4597;48.730;9.114;2022-08-30T13:18:10;29.10;61.40
9125;DHT22;4597;48.730;9.114;2022-08-30T13:20:36;29.10;61.30
9125;DHT22;4597;48.730;9.114;2022-08-30T13:23:07;29.20;60.70
9125;DHT22;4597;48.730;9.114;2022-08-30T13:25:35;29.30;58.30
9125;DHT22;4597;48.730;9.114;2022-08-30T13:28:03;29.40;58.40
9125;DHT22;4597;48.730;9.114;2022-08-30T13:30:29;29.50;57.20
9125;DHT22;4597;48.730;9.114;2022-08-30T13:32:55;29.90;58.80
9125;DHT22;4597;48.730;9.114;2022-08-30T13:35:21;30.10;57.70
9125;DHT22;4597;48.730;9.114;2022-08-30T13:37:46;30.40;56.30
9125;DHT22;4597;48.730;9.114;2022-08-30T13:40:13;30.40;53.50
9125;DHT22;4597;48.730;9.114;2022-08-30T13:42:39;30.70;53.50
9125;DHT22;4597;48.730;9.114;2022-08-30T13:45:08;30.70;54.40
9125;DHT22;4597;48.730;9.114;2022-08-30T13:47:34;31.20;53.40
9125;DHT22;4597;48.730;9.114;2022-08-30T13:49:59;31.50;51.70
9125;DHT22;4597;48.730;9.114;2022-08-30T13:52:25;31.70;50.50
9125;DHT22;4597;48.730;9.114;2022-08-30T13:54:54;32.00;50.00
9125;DHT22;4597;48.730;9.114;2022-08-30T13:57:24;32.20;49.60
9125;DHT22;4597;48.730;9.114;2022-08-30T13:59:50;32.40;48.10
9125;DHT22;4597;48.730;9.114;2022-08-30T14:02:15;32.50;47.40
9125;DHT22;4597;48.730;9.114;2022-08-30T14:04:41;32.50;44.50
9125;DHT22;4597;48.730;9.114;2022-08-30T14:07:06;32.80;46.10
9125;DHT22;4597;48.730;9.114;2022-08-30T14:09:32;33.00;45.20
9125;DHT22;4597;48.730;9.114;2022-08-30T14:11:58;33.40;42.30
9125;DHT22;4597;48.730;9.114;2022-08-30T14:14:23;33.70;40.30
9125;DHT22;4597;48.730;9.114;2022-08-30T14:16:49;33.70;39.30
9125;DHT22;4597;48.730;9.114;2022-08-30T14:19:16;33.70;40.60
9125;DHT22;4597;48.730;9.114;2022-08-30T14:21:42;34.00;40.50
9125;DHT22;4597;48.730;9.114;2022-08-30T14:24:08;34.10;39.30
9125;DHT22;4597;48.730;9.114;2022-08-30T14:26:37;34.30;38.90
9125;DHT22;4597;48.730;9.114;2022-08-30T14:29:06;34.10;38.00
9125;DHT22;4597;48.730;9.114;2022-08-30T14:31:32;34.20;37.90
9125;DHT22;4597;48.730;9.114;2022-08-30T14:33:57;34.40;37.80
9125;DHT22;4597;48.730;9.114;2022-08-30T14:36:23;34.60;36.80
9125;DHT22;4597;48.730;9.114;2022-08-30T14:38:48;34.80;35.20
9125;DHT22;4597;48.730;9.114;2022-08-30T14:41:14;35.00;34.70
9125;DHT22;4597;48.730;9.114;2022-08-30T14:43:40;35.20;32.60
9125;DHT22;4597;48.730;9.114;2022-08-30T14:46:06;35.50;33.00
9125;DHT22;4597;48.730;9.114;2022-08-30T14:48:32;35.20;34.50
9125;DHT22;4597;48.730;9.114;2022-08-30T14:50:58;35.00;34.40
9125;DHT22;4597;48.730;9.114;2022-08-30T14:53:23;35.70;33.70
9125;DHT22;4597;48.730;9.114;2022-08-30T14:55:49;36.80;30.40
9125;DHT22;4597;48.730;9.114;2022-08-30T14:58:14;37.90;29.30
9125;DHT22;4597;48.730;9.114;2022-08-30T15:00:48;39.20;27.30
9125;DHT22;4597;48.730;9.114;2022-08-30T15:03:14;39.70;24.70
9125;DHT22;4597;48.730;9.114;2022-08-30T15:05:40;38.30;25.90
9125;DHT22;4597;48.730;9.114;2022-08-30T15:08:05;36.80;26.90
9125;DHT22;4597;48.730;9.114;2022-08-30T15:10:31;35.30;28.80
9125;DHT22;4597;48.730;9.114;2022-08-30T15:12:56;34.20;30.10
9125;DHT22;4597;48.730;9.114;2022-08-30T15:15:22;33.60;32.40
9125;DHT22;4597;48.730;9.114;2022-08-30T15:17:48;34.90;30.60
9125;DHT22;4597;48.730;9.114;2022-08-30T15:20:14;36.30;29.00
9125;DHT22;4597;48.730;9.114;2022-08-30T15:22:43;37.00;27.80
9125;DHT22;4597;48.730;9.114;2022-08-30T15:25:09;36.60;28.40
9125;DHT22;4597;48.730;9.114;2022-08-30T15:27:34;36.30;28.70
9125;DHT22;4597;48.730;9.114;2022-08-30T15:30:00;36.00;28.90
9125;DHT22;4597;48.730;9.114;2022-08-30T15:32:25;35.50;29.00
9125;DHT22;4597;48.730;9.114;2022-08-30T15:34:51;34.70;30.20
9125;DHT22;4597;48.730;9.114;2022-08-30T15:37:16;33.90;31.70
9125;DHT22;4597;48.730;9.114;2022-08-30T15:39:50;33.30;32.60
9125;DHT22;4597;48.730;9.114;2022-08-30T15:42:16;32.70;34.90
9125;DHT22;4597;48.730;9.114;2022-08-30T15:44:44;32.40;35.10
9125;DHT22;4597;48.730;9.114;2022-08-30T15:47:09;32.10;36.30
9125;DHT22;4597;48.730;9.114;2022-08-30T15:49:35;32.00;37.20
9125;DHT22;4597;48.730;9.114;2022-08-30T15:52:03;32.00;36.20
9125;DHT22;4597;48.730;9.114;2022-08-30T15:54:29;32.50;35.10
9125;DHT22;4597;48.730;9.114;2022-08-30T15:56:54;32.80;34.80
9125;DHT22;4597;48.730;9.114;2022-08-30T15:59:24;33.00;35.50
9125;DHT22;4597;48.730;9.114;2022-08-30T16:01:50;33.10;33.30
9125;DHT22;4597;48.730;9.114;2022-08-30T16:04:15;33.30;34.00
9125;DHT22;4597;48.730;9.114;2022-08-30T16:06:44;33.70;33.80
9125;DHT22;4597;48.730;9.114;2022-08-30T16:09:10;34.00;32.30
9125;DHT22;4597;48.730;9.114;2022-08-30T16:11:36;34.40;32.40
9125;DHT22;4597;48.730;9.114;2022-08-30T16:14:03;34.90;30.50
9125;DHT22;4597;48.730;9.114;2022-08-30T16:16:29;35.70;29.50
9125;DHT22;4597;48.730;9.114;2022-08-30T16:18:55;36.90;29.10
9125;DHT22;4597;48.730;9.114;2022-08-30T16:21:31;37.50;26.70
9125;DHT22;4597;48.730;9.114;2022-08-30T16:23:59;37.50;26.70
9125;DHT22;4597;48.730;9.114;2022-08-30T16:26:26;37.10;26.60
9125;DHT22;4597;48.730;9.114;2022-08-30T16:28:52;36.20;27.30
9125;DHT22;4597;48.730;9.114;2022-08-30T16:31:18;35.50;28.70
9125;DHT22;4597;48.730;9.114;2022-08-30T16:33:44;35.00;29.60
9125;DHT22;4597;48.730;9.114;2022-08-30T16:36:11;34.60;30.00
9125;DHT22;4597;48.730;9.114;2022-08-30T16:38:37;34.00;30.80
9125;DHT22;4597;48.730;9.114;2022-08-30T16:41:09;33.20;32.10
9125;DHT22;4597;48.730;9.114;2022-08-30T16:43:35;32.40;33.10
9125;DHT22;4597;48.730;9.114;2022-08-30T16:46:03;31.80;33.70
9125;DHT22;4597;48.730;9.114;2022-08-30T16:48:29;31.20;36.50
9125;DHT22;4597;48.730;9.114;2022-08-30T16:50:55;30.80;37.60
9125;DHT22;4597;48.730;9.114;2022-08-30T16:53:23;30.50;38.20
9125;DHT22;4597;48.730;9.114;2022-08-30T16:55:49;30.10;39.40
9125;DHT22;4597;48.730;9.114;2022-08-30T16:58:15;29.90;38.80
9125;DHT22;4597;48.730;9.114;2022-08-30T17:00:40;29.70;40.70
9125;DHT22;4597;48.730;9.114;2022-08-30T17:03:07;29.50;41.00
9125;DHT22;4597;48.730;9.114;2022-08-30T17:05:34;29.30;42.00
9125;DHT22;4597;48.730;9.114;2022-08-30T17:08:01;29.20;42.20
9125;DHT22;4597;48.730;9.114;2022-08-30T17:10:27;29.10;43.20
9125;DHT22;4597;48.730;9.114;2022-08-30T17:12:53;28.90;43.20
9125;DHT22;4597;48.730;9.114;2022-08-30T17:15:18;28.80;44.60
9125;DHT22;4597;48.730;9.114;2022-08-30T17:17:45;28.80;44.00
9125;DHT22;4597;48.730;9.114;2022-08-30T17:20:10;28.70;44.10
9125;DHT22;4597;48.730;9.114;2022-08-30T17:22:36;28.60;43.70